Time;durP1;ratioP1;P1;durP2;ratioP2;P2;SDS_P1;SDS_P2;PMS_P1;PMS_P2;Temp;Humidity;BMP_temperature;BMP_pressure;BME280_temperature;BME280_humidity;BME280_pressure;Samples;Min_cycle;Max_cycle;Signal;HPM_P1;HPM_P2
2021/12/23 00:00:33;;;;;;;57.42;29.88;;;;;;;;;;5020632;28;20068;-83
2021/12/23 00:02:59;;;;;;;53.60;30.45;;;;;;;;;;5037257;28;20155;-83
2021/12/23 00:05:25;;;;;;;58.95;32.15;;;;;;;;;;5040659;28;20029;-83
2021/12/23 00:07:51;;;;;;;58.17;29.80;;;;;;;;;;5039998;28;20021;-83
2021/12/23 00:10:17;;;;;;;49.08;30.30;;;;;;;;;;5037969;28;20021;-83
2021/12/23 00:12:45;;;;;;;53.38;32.65;;;;;;;;;;5039250;28;20037;-83
2021/12/23 00:16:04;;;;;;;52.30;28.65;;;;;;;;;;5039573;28;20051;-82
2021/12/23 00:18:56;;;;;;;55.30;34.25;;;;;;;;;;5025414;28;20038;-83
2021/12/23 00:25:48;;;;;;;55.00;32.30;;;;;;;;;;5038512;28;20530;-83
2021/12/23 00:28:14;;;;;;;51.42;31.45;;;;;;;;;;5037651;28;20030;-82
2021/12/23 00:30:40;;;;;;;55.33;30.60;;;;;;;;;;5039399;28;20040;-82
2021/12/23 00:33:06;;;;;;;55.88;28.92;;;;;;;;;;5038615;28;20041;-82
2021/12/23 00:35:32;;;;;;;58.75;30.25;;;;;;;;;;5038844;28;20455;-82
2021/12/23 00:38:02;;;;;;;53.75;29.65;;;;;;;;;;5037502;28;20022;-83
2021/12/23 00:40:29;;;;;;;52.58;31.58;;;;;;;;;;5037580;28;20045;-82
2021/12/23 00:42:55;;;;;;;50.92;28.63;;;;;;;;;;5039613;28;20048;-82
2021/12/23 00:45:21;;;;;;;54.47;32.97;;;;;;;;;;5037784;28;20030;-83
2021/12/23 00:47:47;;;;;;;58.13;30.60;;;;;;;;;;5038868;28;20021;-83
2021/12/23 00:50:13;;;;;;;48.97;28.52;;;;;;;;;;5035495;28;20526;-83
2021/12/23 00:52:40;;;;;;;47.10;28.17;;;;;;;;;;5035854;28;20041;-82
2021/12/23 00:55:08;;;;;;;50.75;27.27;;;;;;;;;;5035928;28;20038;-83
2021/12/23 00:57:38;;;;;;;51.15;29.38;;;;;;;;;;5039279;28;20052;-83
2021/12/23 01:00:06;;;;;;;50.80;28.40;;;;;;;;;;5027800;28;20018;-83
2021/12/23 01:02:32;;;;;;;57.67;30.25;;;;;;;;;;5041815;28;20073;-82
2021/12/23 01:05:02;;;;;;;50.03;28.85;;;;;;;;;;5055414;28;20022;-81
2021/12/23 01:07:28;;;;;;;50.42;28.95;;;;;;;;;;5049636;28;20120;-83
2021/12/23 01:09:54;;;;;;;52.22;30.08;;;;;;;;;;5030284;28;20052;-83
2021/12/23 01:12:26;;;;;;;52.15;29.88;;;;;;;;;;5040929;28;20083;-83
2021/12/23 01:15:11;;;;;;;51.72;29.15;;;;;;;;;;5043597;28;20120;-83
2021/12/23 01:18:06;;;;;;;49.72;28.27;;;;;;;;;;5045855;28;20087;-83
2021/12/23 01:20:34;;;;;;;47.70;26.95;;;;;;;;;;5045316;28;20066;-83
2021/12/23 01:23:02;;;;;;;43.97;25.92;;;;;;;;;;5044567;28;20045;-84
2021/12/23 01:25:28;;;;;;;48.33;28.85;;;;;;;;;;5044421;28;20025;-83
2021/12/23 01:27:54;;;;;;;49.03;27.92;;;;;;;;;;5045200;28;20037;-83
2021/12/23 01:30:21;;;;;;;53.33;30.25;;;;;;;;;;5042504;28;20071;-83
2021/12/23 01:32:49;;;;;;;52.40;30.42;;;;;;;;;;5045291;28;20120;-83
2021/12/23 01:35:15;;;;;;;52.13;30.75;;;;;;;;;;5043552;28;20029;-83
2021/12/23 01:37:41;;;;;;;54.78;29.85;;;;;;;;;;5045259;28;20013;-83
2021/12/23 01:40:08;;;;;;;52.42;29.65;;;;;;;;;;5043038;28;20024;-83
2021/12/23 01:42:34;;;;;;;52.35;29.67;;;;;;;;;;5041373;28;19994;-83
2021/12/23 01:45:00;;;;;;;52.03;30.33;;;;;;;;;;5041108;28;20376;-83
2021/12/23 01:47:26;;;;;;;52.20;31.23;;;;;;;;;;5042811;28;20052;-81
2021/12/23 01:49:52;;;;;;;55.13;30.33;;;;;;;;;;5040317;28;20030;-83
2021/12/23 01:52:18;;;;;;;56.20;30.92;;;;;;;;;;5041108;28;20041;-83
2021/12/23 01:54:44;;;;;;;55.47;29.65;;;;;;;;;;5042640;28;20126;-83
2021/12/23 01:57:11;;;;;;;47.75;27.35;;;;;;;;;;5040958;28;20618;-83
2021/12/23 01:59:37;;;;;;;46.35;27.17;;;;;;;;;;5035147;28;20041;-83
2021/12/23 02:02:03;;;;;;;53.25;26.95;;;;;;;;;;5027918;28;20026;-83
2021/12/23 02:04:29;;;;;;;46.55;26.15;;;;;;;;;;5040810;28;20111;-83
2021/12/23 02:06:55;;;;;;;50.33;27.35;;;;;;;;;;5042491;28;20427;-83
2021/12/23 02:09:21;;;;;;;52.53;29.95;;;;;;;;;;5039977;28;20029;-83
2021/12/23 02:11:47;;;;;;;53.00;30.02;;;;;;;;;;5039974;28;20121;-83
2021/12/23 02:14:13;;;;;;;52.67;29.55;;;;;;;;;;5033181;28;20026;-83
2021/12/23 02:16:39;;;;;;;56.92;29.52;;;;;;;;;;5025203;28;20029;-83
2021/12/23 02:19:14;;;;;;;55.83;30.70;;;;;;;;;;5039008;28;20044;-83
2021/12/23 02:21:42;;;;;;;49.45;27.45;;;;;;;;;;5039182;28;20017;-83
2021/12/23 02:24:08;;;;;;;55.33;30.30;;;;;;;;;;5038949;28;20376;-82
2021/12/23 02:26:38;;;;;;;54.33;30.92;;;;;;;;;;5039759;28;20076;-83
2021/12/23 02:29:04;;;;;;;55.63;30.30;;;;;;;;;;5033062;28;20029;-83
2021/12/23 02:31:30;;;;;;;55.15;29.73;;;;;;;;;;5038850;28;20056;-83
2021/12/23 02:33:56;;;;;;;54.83;30.35;;;;;;;;;;5042209;28;20116;-84
2021/12/23 02:36:22;;;;;;;55.35;29.48;;;;;;;;;;5041475;28;20553;-83
2021/12/23 02:38:48;;;;;;;52.60;28.17;;;;;;;;;;5042348;28;20037;-84
2021/12/23 02:41:14;;;;;;;47.95;28.05;;;;;;;;;;5044401;28;20087;-83
2021/12/23 02:43:40;;;;;;;48.40;28.17;;;;;;;;;;5044320;28;20045;-83
2021/12/23 02:46:06;;;;;;;50.17;29.65;;;;;;;;;;5043195;28;20360;-84
2021/12/23 02:48:34;;;;;;;50.05;27.95;;;;;;;;;;5043141;28;20391;-83
2021/12/23 02:51:01;;;;;;;48.42;26.85;;;;;;;;;;5035290;28;20084;-84
2021/12/23 02:53:27;;;;;;;48.60;29.13;;;;;;;;;;5043432;28;20052;-83
2021/12/23 02:55:55;;;;;;;48.90;27.00;;;;;;;;;;5042271;28;20038;-83
2021/12/23 02:58:21;;;;;;;47.25;28.17;;;;;;;;;;5043070;28;20055;-83
2021/12/23 03:00:51;;;;;;;52.05;29.38;;;;;;;;;;5041657;28;20029;-83
2021/12/23 03:03:17;;;;;;;48.55;29.55;;;;;;;;;;5040269;28;20017;-83
2021/12/23 03:05:47;;;;;;;50.10;27.35;;;;;;;;;;5039881;28;20522;-83
2021/12/23 03:08:13;;;;;;;47.80;28.63;;;;;;;;;;5040538;28;20045;-83
2021/12/23 03:10:42;;;;;;;53.50;30.13;;;;;;;;;;5035322;28;20531;-83
2021/12/23 03:13:08;;;;;;;52.20;30.23;;;;;;;;;;5021910;28;20064;-83
2021/12/23 03:15:34;;;;;;;54.55;28.20;;;;;;;;;;5039912;28;20025;-83
2021/12/23 03:18:00;;;;;;;58.78;29.75;;;;;;;;;;5040831;28;20376;-83
2021/12/23 03:20:26;;;;;;;55.13;29.92;;;;;;;;;;5035844;28;20022;-83
2021/12/23 03:22:52;;;;;;;51.83;28.13;;;;;;;;;;5037460;28;20104;-83
2021/12/23 03:25:18;;;;;;;53.20;29.83;;;;;;;;;;5040555;28;20021;-83
2021/12/23 03:27:44;;;;;;;53.20;28.00;;;;;;;;;;5039213;28;20032;-83
2021/12/23 03:30:10;;;;;;;55.85;28.98;;;;;;;;;;5038977;28;20552;-83
2021/12/23 03:32:36;;;;;;;46.75;26.90;;;;;;;;;;5037164;28;20391;-83
2021/12/23 03:35:03;;;;;;;47.65;25.65;;;;;;;;;;5036871;28;20029;-83
2021/12/23 03:37:29;;;;;;;41.83;25.90;;;;;;;;;;5039336;28;20355;-83
2021/12/23 03:39:55;;;;;;;43.38;24.42;;;;;;;;;;5039751;28;20036;-84
2021/12/23 03:42:21;;;;;;;47.05;26.52;;;;;;;;;;5036404;28;20021;-84
2021/12/23 03:44:47;;;;;;;47.05;25.15;;;;;;;;;;5038760;28;20041;-84
2021/12/23 03:47:13;;;;;;;48.47;26.73;;;;;;;;;;5038993;28;20026;-84
2021/12/23 03:49:40;;;;;;;43.72;24.65;;;;;;;;;;5035421;28;20041;-84
2021/12/23 03:52:06;;;;;;;42.75;25.58;;;;;;;;;;5039126;28;20231;-84
2021/12/23 03:54:32;;;;;;;42.03;25.67;;;;;;;;;;5039181;28;20566;-83
2021/12/23 03:56:58;;;;;;;41.90;24.45;;;;;;;;;;5038548;28;20483;-84
2021/12/23 03:59:24;;;;;;;43.85;26.13;;;;;;;;;;5036367;28;20391;-84
2021/12/23 04:01:50;;;;;;;46.08;24.75;;;;;;;;;;5036872;28;20124;-83
2021/12/23 04:04:16;;;;;;;42.30;25.88;;;;;;;;;;5036919;28;20318;-84
2021/12/23 04:06:45;;;;;;;42.70;25.55;;;;;;;;;;5037499;28;20041;-84
2021/12/23 04:09:11;;;;;;;48.30;25.98;;;;;;;;;;5033080;28;20052;-83
2021/12/23 04:11:37;;;;;;;47.47;24.52;;;;;;;;;;5056108;28;20022;-82
2021/12/23 04:14:03;;;;;;;43.22;26.75;;;;;;;;;;5052559;28;20077;-84
2021/12/23 04:16:29;;;;;;;47.92;27.35;;;;;;;;;;5042022;28;20034;-84
2021/12/23 04:18:55;;;;;;;47.53;28.58;;;;;;;;;;5038115;28;20024;-84
2021/12/23 04:21:21;;;;;;;45.42;26.38;;;;;;;;;;5042864;28;20025;-83
2021/12/23 04:23:47;;;;;;;51.03;28.38;;;;;;;;;;5042497;28;20081;-84
2021/12/23 04:26:13;;;;;;;50.22;28.35;;;;;;;;;;5041711;28;20099;-84
2021/12/23 04:28:47;;;;;;;45.88;26.80;;;;;;;;;;5041494;28;21445;-84
2021/12/23 04:31:18;;;;;;;50.45;27.98;;;;;;;;;;5040905;28;20033;-84
2021/12/23 04:33:45;;;;;;;50.00;28.35;;;;;;;;;;5038242;28;20120;-83
2021/12/23 04:36:11;;;;;;;45.72;25.60;;;;;;;;;;5028052;28;20026;-83
2021/12/23 04:38:38;;;;;;;46.67;28.40;;;;;;;;;;5034566;28;20057;-83
2021/12/23 04:41:05;;;;;;;46.50;26.15;;;;;;;;;;5045283;28;20037;-83
2021/12/23 04:43:32;;;;;;;49.90;26.63;;;;;;;;;;5043011;28;20025;-84
2021/12/23 04:45:58;;;;;;;47.40;25.75;;;;;;;;;;5040775;28;20025;-83
2021/12/23 04:48:24;;;;;;;50.13;27.25;;;;;;;;;;5040197;28;20048;-83
2021/12/23 04:50:50;;;;;;;47.60;26.50;;;;;;;;;;5036251;28;20054;-83
2021/12/23 04:53:16;;;;;;;50.92;25.63;;;;;;;;;;5042397;28;20037;-84
2021/12/23 04:55:43;;;;;;;50.38;26.08;;;;;;;;;;5038981;28;20040;-84
2021/12/23 04:58:09;;;;;;;45.42;25.55;;;;;;;;;;5043919;28;20036;-83
2021/12/23 05:00:36;;;;;;;46.10;25.25;;;;;;;;;;5043800;28;20422;-83
2021/12/23 05:03:02;;;;;;;50.08;24.63;;;;;;;;;;5044365;28;20034;-83
2021/12/23 05:05:29;;;;;;;50.28;26.13;;;;;;;;;;5039319;28;20032;-84
2021/12/23 05:07:57;;;;;;;44.88;25.58;;;;;;;;;;5041566;28;20083;-84
2021/12/23 05:10:25;;;;;;;46.60;26.98;;;;;;;;;;5041909;28;20167;-83
2021/12/23 05:12:51;;;;;;;45.30;25.65;;;;;;;;;;5038082;28;20510;-83
2021/12/23 05:15:18;;;;;;;45.47;24.75;;;;;;;;;;5042772;28;20029;-83
2021/12/23 05:17:44;;;;;;;39.15;24.67;;;;;;;;;;5039986;28;20134;-83
2021/12/23 05:20:11;;;;;;;52.00;28.80;;;;;;;;;;5038160;28;20052;-83
2021/12/23 05:22:37;;;;;;;44.17;25.38;;;;;;;;;;5043547;28;20400;-83
2021/12/23 05:25:04;;;;;;;41.92;23.42;;;;;;;;;;5042709;28;20033;-83
2021/12/23 05:27:30;;;;;;;51.95;25.95;;;;;;;;;;5041131;28;20033;-84
2021/12/23 05:29:56;;;;;;;42.45;24.83;;;;;;;;;;5039999;28;20035;-84
2021/12/23 05:32:22;;;;;;;45.50;26.05;;;;;;;;;;5043016;28;20025;-84
2021/12/23 05:34:48;;;;;;;44.10;25.55;;;;;;;;;;5042586;28;20116;-84
2021/12/23 05:37:17;;;;;;;49.65;25.27;;;;;;;;;;5039216;28;20022;-83
2021/12/23 05:39:43;;;;;;;45.88;25.42;;;;;;;;;;5039055;28;20033;-83
2021/12/23 05:42:09;;;;;;;43.78;25.33;;;;;;;;;;5038818;28;20029;-83
2021/12/23 05:44:35;;;;;;;45.28;25.90;;;;;;;;;;5042506;28;20451;-83
2021/12/23 05:47:01;;;;;;;40.75;25.27;;;;;;;;;;5041734;28;20034;-83
2021/12/23 05:49:27;;;;;;;42.88;25.30;;;;;;;;;;5037199;28;20034;-83
2021/12/23 05:51:53;;;;;;;51.72;26.25;;;;;;;;;;5040553;28;20042;-83
2021/12/23 05:54:19;;;;;;;49.03;23.42;;;;;;;;;;5037921;28;20030;-84
2021/12/23 05:56:45;;;;;;;41.75;22.75;;;;;;;;;;5042213;28;20021;-83
2021/12/23 05:59:11;;;;;;;39.08;22.80;;;;;;;;;;5042599;28;20021;-83
2021/12/23 06:01:37;;;;;;;40.60;21.63;;;;;;;;;;5043922;28;20028;-83
2021/12/23 06:04:03;;;;;;;40.92;23.38;;;;;;;;;;5043347;28;20057;-84
2021/12/23 06:06:29;;;;;;;42.90;25.52;;;;;;;;;;5039761;28;20033;-83
2021/12/23 06:08:55;;;;;;;40.65;23.17;;;;;;;;;;5034642;28;20994;-83
2021/12/23 06:11:22;;;;;;;44.92;24.27;;;;;;;;;;5039098;28;20061;-83
2021/12/23 06:13:48;;;;;;;45.55;24.92;;;;;;;;;;5038163;28;20038;-83
2021/12/23 06:16:14;;;;;;;43.80;24.75;;;;;;;;;;5040463;28;20026;-83
2021/12/23 06:18:40;;;;;;;44.10;24.50;;;;;;;;;;5039410;28;20040;-83
2021/12/23 06:21:06;;;;;;;39.83;24.02;;;;;;;;;;5040379;28;20033;-84
2021/12/23 06:23:32;;;;;;;43.97;26.63;;;;;;;;;;5035827;28;20022;-83
2021/12/23 06:25:58;;;;;;;43.35;24.30;;;;;;;;;;5040202;28;20057;-83
2021/12/23 06:28:24;;;;;;;43.67;24.65;;;;;;;;;;5040000;28;20029;-83
2021/12/23 06:30:51;;;;;;;50.00;25.58;;;;;;;;;;5039872;28;20053;-83
2021/12/23 06:33:17;;;;;;;43.35;23.52;;;;;;;;;;5040151;28;20091;-83
2021/12/23 06:35:43;;;;;;;37.70;21.55;;;;;;;;;;5040791;28;20029;-83
2021/12/23 06:38:10;;;;;;;43.03;24.75;;;;;;;;;;5041613;28;20045;-84
2021/12/23 06:40:37;;;;;;;41.50;23.35;;;;;;;;;;5038022;28;20021;-84
2021/12/23 06:43:03;;;;;;;41.65;23.05;;;;;;;;;;5037270;28;20088;-83
2021/12/23 06:45:29;;;;;;;38.20;22.63;;;;;;;;;;5037128;28;20580;-84
2021/12/23 06:47:55;;;;;;;42.58;24.80;;;;;;;;;;5038809;28;20391;-84
2021/12/23 06:50:22;;;;;;;41.60;23.75;;;;;;;;;;5040779;28;20029;-83
2021/12/23 06:52:48;;;;;;;40.38;24.15;;;;;;;;;;5039512;28;20045;-83
2021/12/23 06:55:15;;;;;;;45.55;24.15;;;;;;;;;;5038948;28;20029;-83
2021/12/23 06:57:42;;;;;;;39.92;24.55;;;;;;;;;;5038255;28;20411;-83
2021/12/23 07:00:11;;;;;;;39.97;23.10;;;;;;;;;;5038675;28;20056;-84
2021/12/23 07:02:39;;;;;;;44.03;23.88;;;;;;;;;;5040463;28;20400;-83
2021/12/23 07:05:06;;;;;;;47.92;26.38;;;;;;;;;;5033052;28;20057;-84
2021/12/23 07:07:40;;;;;;;41.25;23.50;;;;;;;;;;5021527;28;20022;-83
2021/12/23 07:10:07;;;;;;;37.75;23.45;;;;;;;;;;5056866;28;20029;-83
2021/12/23 07:12:33;;;;;;;45.35;26.30;;;;;;;;;;5050185;28;20037;-84
2021/12/23 07:14:59;;;;;;;45.67;27.73;;;;;;;;;;5043045;28;20040;-84
2021/12/23 07:17:28;;;;;;;41.47;24.45;;;;;;;;;;5042533;28;20026;-84
2021/12/23 07:19:54;;;;;;;39.65;22.90;;;;;;;;;;5040139;28;20056;-84
2021/12/23 07:22:20;;;;;;;39.40;22.20;;;;;;;;;;5041749;28;20490;-84
2021/12/23 07:24:46;;;;;;;43.22;23.45;;;;;;;;;;5041639;28;20025;-84
2021/12/23 07:27:12;;;;;;;40.85;23.40;;;;;;;;;;5041436;28;20029;-84
2021/12/23 07:29:38;;;;;;;41.20;23.05;;;;;;;;;;5041235;28;20030;-84
2021/12/23 07:32:06;;;;;;;43.13;24.70;;;;;;;;;;5039884;28;20084;-83
2021/12/23 07:34:32;;;;;;;43.17;22.38;;;;;;;;;;5040085;28;20380;-84
2021/12/23 07:36:58;;;;;;;42.55;23.25;;;;;;;;;;5040270;28;20033;-84
2021/12/23 07:39:24;;;;;;;43.10;24.25;;;;;;;;;;5041345;28;20138;-83
2021/12/23 07:41:50;;;;;;;43.05;24.52;;;;;;;;;;5041595;28;20517;-83
2021/12/23 07:44:20;;;;;;;41.55;23.33;;;;;;;;;;5040257;28;21267;-83
2021/12/23 07:46:47;;;;;;;39.33;23.17;;;;;;;;;;5028047;28;20056;-83
2021/12/23 07:49:13;;;;;;;42.08;23.40;;;;;;;;;;5037763;28;20440;-84
2021/12/23 07:51:39;;;;;;;40.53;25.00;;;;;;;;;;5039569;28;20134;-83
2021/12/23 07:54:05;;;;;;;36.33;22.77;;;;;;;;;;5039492;28;20025;-85
2021/12/23 07:56:31;;;;;;;37.38;22.13;;;;;;;;;;5036874;28;20029;-82
2021/12/23 07:58:57;;;;;;;37.75;22.75;;;;;;;;;;5037692;28;20504;-83
2021/12/23 08:01:23;;;;;;;38.97;23.38;;;;;;;;;;5038327;28;20072;-82
2021/12/23 08:03:49;;;;;;;40.75;24.80;;;;;;;;;;5035313;28;20031;-83
2021/12/23 08:06:16;;;;;;;41.00;22.90;;;;;;;;;;5037470;28;20025;-82
2021/12/23 08:08:42;;;;;;;42.72;24.45;;;;;;;;;;5038505;28;20037;-82
2021/12/23 08:11:08;;;;;;;37.45;23.70;;;;;;;;;;5037256;28;20124;-82
2021/12/23 08:13:34;;;;;;;43.40;23.98;;;;;;;;;;5037619;28;20106;-85
2021/12/23 08:16:01;;;;;;;36.72;21.55;;;;;;;;;;5037637;28;20037;-83
2021/12/23 08:18:31;;;;;;;40.63;23.80;;;;;;;;;;5037744;28;20726;-83
2021/12/23 08:20:58;;;;;;;38.97;23.88;;;;;;;;;;5022993;28;20026;-82
2021/12/23 08:23:24;;;;;;;38.40;23.40;;;;;;;;;;5018410;28;20078;-83
2021/12/23 08:25:50;;;;;;;41.90;23.63;;;;;;;;;;5033268;28;20057;-83
2021/12/23 08:28:16;;;;;;;39.72;24.45;;;;;;;;;;5036797;28;20033;-82
2021/12/23 08:30:42;;;;;;;44.45;26.02;;;;;;;;;;5034783;28;20128;-82
2021/12/23 08:33:09;;;;;;;43.70;26.05;;;;;;;;;;5036077;28;20036;-82
2021/12/23 08:35:35;;;;;;;39.60;24.50;;;;;;;;;;5036298;28;20039;-82
2021/12/23 08:38:01;;;;;;;43.95;23.88;;;;;;;;;;5038550;28;20096;-82
2021/12/23 08:40:27;;;;;;;36.35;22.98;;;;;;;;;;5025395;28;20512;-81
2021/12/23 08:42:54;;;;;;;40.65;22.98;;;;;;;;;;5016643;28;20026;-81
2021/12/23 08:45:20;;;;;;;39.63;22.85;;;;;;;;;;5016106;28;20042;-82
2021/12/23 08:47:47;;;;;;;39.30;23.60;;;;;;;;;;5016517;28;20030;-82
2021/12/23 08:50:14;;;;;;;44.33;25.10;;;;;;;;;;5031099;28;20113;-81
2021/12/23 08:52:40;;;;;;;42.45;25.23;;;;;;;;;;5035684;28;20171;-81
2021/12/23 08:55:08;;;;;;;41.33;23.30;;;;;;;;;;5035236;28;20045;-81
2021/12/23 08:57:34;;;;;;;40.70;22.38;;;;;;;;;;5035612;28;20052;-81
2021/12/23 09:00:00;;;;;;;44.53;24.95;;;;;;;;;;5035881;28;20117;-82
2021/12/23 09:02:27;;;;;;;39.72;23.85;;;;;;;;;;5038337;28;20075;-82
2021/12/23 09:04:53;;;;;;;47.13;23.77;;;;;;;;;;5036611;28;20033;-81
2021/12/23 09:07:19;;;;;;;40.97;22.40;;;;;;;;;;5036314;28;20029;-81
2021/12/23 09:09:50;;;;;;;41.05;24.45;;;;;;;;;;5035135;28;20029;-82
2021/12/23 09:12:17;;;;;;;38.90;22.30;;;;;;;;;;5036629;28;20029;-82
2021/12/23 09:14:43;;;;;;;39.97;24.08;;;;;;;;;;5035263;28;20074;-82
2021/12/23 09:17:09;;;;;;;40.58;23.20;;;;;;;;;;5034916;28;20099;-82
2021/12/23 09:19:35;;;;;;;39.92;23.42;;;;;;;;;;5036083;28;20026;-82
2021/12/23 09:22:01;;;;;;;35.83;22.25;;;;;;;;;;5035475;28;20028;-82
2021/12/23 09:24:28;;;;;;;35.80;22.42;;;;;;;;;;5035242;28;20056;-81
2021/12/23 09:27:17;;;;;;;36.67;23.55;;;;;;;;;;5035325;28;20052;-81
2021/12/23 09:34:55;;;;;;;34.60;23.73;;;;;;;;;;5034076;28;20048;-81
2021/12/23 09:37:22;;;;;;;41.08;24.35;;;;;;;;;;5038182;28;20049;-81
2021/12/23 09:39:53;;;;;;;40.50;25.52;;;;;;;;;;5037200;28;20060;-82
2021/12/23 09:42:29;;;;;;;38.90;23.75;;;;;;;;;;5037920;28;20017;-81
2021/12/23 09:44:58;;;;;;;39.90;23.95;;;;;;;;;;5036022;28;20056;-82
2021/12/23 09:47:30;;;;;;;44.85;26.08;;;;;;;;;;5036623;28;20391;-82
2021/12/23 09:49:57;;;;;;;37.90;21.98;;;;;;;;;;5037319;28;20022;-82
2021/12/23 09:52:23;;;;;;;38.95;23.30;;;;;;;;;;5036887;28;20068;-82
2021/12/23 09:54:50;;;;;;;42.03;26.13;;;;;;;;;;5038325;28;20053;-82
2021/12/23 09:57:16;;;;;;;36.38;23.33;;;;;;;;;;5037739;28;20037;-82
2021/12/23 09:59:43;;;;;;;39.85;22.83;;;;;;;;;;5041979;28;20006;-82
2021/12/23 10:02:09;;;;;;;37.22;22.70;;;;;;;;;;5057028;28;20037;-81
2021/12/23 10:04:35;;;;;;;34.20;22.00;;;;;;;;;;5044055;28;20053;-82
2021/12/23 10:07:01;;;;;;;39.67;23.90;;;;;;;;;;5037634;28;20045;-82
2021/12/23 10:37:24;;;;;;;39.88;24.77;;;;;;;;;;5037751;28;20028;-81
2021/12/23 10:39:54;;;;;;;39.30;24.42;;;;;;;;;;5036399;28;20030;-81
2021/12/23 10:42:23;;;;;;;36.00;21.30;;;;;;;;;;5036034;28;20104;-80
2021/12/23 10:44:53;;;;;;;36.30;23.15;;;;;;;;;;5036744;28;20029;-81
2021/12/23 10:47:44;;;;;;;41.45;29.55;;;;;;;;;;5034685;28;20048;-81
2021/12/23 10:50:13;;;;;;;33.60;21.35;;;;;;;;;;5035873;28;20029;-81
2021/12/23 10:52:56;;;;;;;35.30;21.33;;;;;;;;;;4999508;28;1111383;-81
2021/12/23 10:58:03;;;;;;;33.17;20.95;;;;;;;;;;5037789;28;20197;-81
2021/12/23 11:00:45;;;;;;;39.92;24.23;;;;;;;;;;5041661;28;20026;-81
2021/12/23 11:03:26;;;;;;;35.83;22.98;;;;;;;;;;5050079;28;20029;-81
2021/12/23 11:06:02;;;;;;;34.20;22.25;;;;;;;;;;5050287;28;20010;-80
2021/12/23 11:08:56;;;;;;;32.33;19.73;;;;;;;;;;5033796;28;20080;-80
2021/12/23 11:39:07;;;;;;;39.10;24.15;;;;;;;;;;5035338;28;20093;-81
2021/12/23 11:41:37;;;;;;;39.80;24.60;;;;;;;;;;5035175;28;20025;-81
2021/12/23 11:44:05;;;;;;;39.13;24.55;;;;;;;;;;5031473;28;20013;-81
2021/12/23 11:46:40;;;;;;;36.03;22.13;;;;;;;;;;5029996;28;20086;-81
2021/12/23 11:49:09;;;;;;;32.78;21.23;;;;;;;;;;5033460;28;20171;-82
2021/12/23 11:54:08;;;;;;;32.83;20.80;;;;;;;;;;5035040;28;20034;-81
2021/12/23 11:56:37;;;;;;;35.08;21.50;;;;;;;;;;5034695;28;20037;-81
2021/12/23 11:59:03;;;;;;;30.75;20.30;;;;;;;;;;5034193;28;20036;-81
2021/12/23 12:01:31;;;;;;;34.38;21.08;;;;;;;;;;5033089;28;20056;-82
2021/12/23 12:04:01;;;;;;;36.80;21.48;;;;;;;;;;5017701;28;20093;-82
2021/12/23 12:06:38;;;;;;;32.30;19.35;;;;;;;;;;5022719;28;20151;-83
2021/12/23 12:09:12;;;;;;;34.97;20.00;;;;;;;;;;5037304;28;20080;-81
2021/12/23 12:11:38;;;;;;;34.25;22.38;;;;;;;;;;5037039;28;20029;-82
2021/12/23 12:14:05;;;;;;;37.95;21.40;;;;;;;;;;5036001;28;20125;-82
2021/12/23 12:16:33;;;;;;;34.90;20.77;;;;;;;;;;5036544;28;20032;-82
2021/12/23 12:19:00;;;;;;;36.80;21.13;;;;;;;;;;5036714;28;20026;-81
2021/12/23 12:21:28;;;;;;;41.13;21.60;;;;;;;;;;5035475;28;20026;-82
2021/12/23 12:24:07;;;;;;;33.75;20.88;;;;;;;;;;5034949;28;20113;-84
2021/12/23 12:26:37;;;;;;;46.10;22.73;;;;;;;;;;5034892;28;20079;-79
2021/12/23 12:29:06;;;;;;;34.85;20.50;;;;;;;;;;5033566;28;20025;-80
2021/12/23 12:31:40;;;;;;;51.75;22.35;;;;;;;;;;5032919;28;20383;-78
2021/12/23 12:34:07;;;;;;;35.38;20.63;;;;;;;;;;5034935;28;20056;-82
2021/12/23 12:36:53;;;;;;;34.78;19.25;;;;;;;;;;5035207;28;20545;-81
2021/12/23 12:39:21;;;;;;;34.00;18.25;;;;;;;;;;5034941;28;20434;-81
2021/12/23 12:41:47;;;;;;;32.70;20.65;;;;;;;;;;5034892;28;20440;-82
2021/12/23 12:47:01;;;;;;;32.08;21.63;;;;;;;;;;5035861;28;20047;-82
2021/12/23 12:49:30;;;;;;;44.92;22.90;;;;;;;;;;5049015;28;20015;-79
2021/12/23 12:52:07;;;;;;;34.38;21.40;;;;;;;;;;5051068;28;20128;-80
2021/12/23 12:54:34;;;;;;;34.78;20.92;;;;;;;;;;5036176;28;20132;-81
2021/12/23 12:57:04;;;;;;;32.45;19.83;;;;;;;;;;5034453;28;20026;-80
2021/12/23 12:59:31;;;;;;;34.28;20.58;;;;;;;;;;5036588;28;20445;-80
2021/12/23 13:01:59;;;;;;;29.67;19.67;;;;;;;;;;5036425;28;20051;-81
2021/12/23 13:04:25;;;;;;;33.75;18.73;;;;;;;;;;5036615;28;20033;-81
2021/12/23 13:06:52;;;;;;;39.53;20.98;;;;;;;;;;5036395;28;20022;-81
2021/12/23 13:09:22;;;;;;;37.88;20.38;;;;;;;;;;5035835;28;20049;-80
2021/12/23 13:11:49;;;;;;;31.33;19.83;;;;;;;;;;5038146;28;20029;-81
2021/12/23 13:14:21;;;;;;;29.80;19.67;;;;;;;;;;5039432;28;20018;-80
2021/12/23 13:16:57;;;;;;;44.45;22.88;;;;;;;;;;5039546;28;20064;-81
2021/12/23 13:19:29;;;;;;;35.92;21.67;;;;;;;;;;5039115;28;20021;-81
2021/12/23 13:21:56;;;;;;;34.35;22.30;;;;;;;;;;5038392;28;20412;-81
2021/12/23 13:24:24;;;;;;;33.85;20.95;;;;;;;;;;5038014;28;20033;-81
2021/12/23 13:26:50;;;;;;;41.95;21.50;;;;;;;;;;5039088;28;20108;-81
2021/12/23 13:29:16;;;;;;;31.48;21.50;;;;;;;;;;5038847;28;20026;-80
2021/12/23 13:31:43;;;;;;;34.05;21.52;;;;;;;;;;5039010;28;20116;-83
2021/12/23 13:34:12;;;;;;;34.50;20.27;;;;;;;;;;5037489;28;20032;-79
2021/12/23 13:36:38;;;;;;;28.88;19.65;;;;;;;;;;5036757;28;20084;-79
2021/12/23 13:39:06;;;;;;;33.55;20.83;;;;;;;;;;5037373;28;20033;-79
2021/12/23 13:41:35;;;;;;;34.25;19.73;;;;;;;;;;5038234;28;20565;-80
2021/12/23 13:44:02;;;;;;;34.88;20.63;;;;;;;;;;5037098;28;20198;-80
2021/12/23 13:46:29;;;;;;;30.55;20.50;;;;;;;;;;5038126;28;20030;-80
2021/12/23 13:49:03;;;;;;;32.60;22.73;;;;;;;;;;5038322;28;20029;-81
2021/12/23 13:51:31;;;;;;;30.10;19.95;;;;;;;;;;5038501;28;20052;-80
2021/12/23 13:54:06;;;;;;;31.75;20.23;;;;;;;;;;5037359;28;20028;-79
2021/12/23 13:56:34;;;;;;;36.13;20.35;;;;;;;;;;5031500;28;20040;-80
2021/12/23 13:59:26;;;;;;;30.40;18.73;;;;;;;;;;5037300;28;20080;-80
2021/12/23 14:01:57;;;;;;;34.58;21.35;;;;;;;;;;5033041;28;20392;-80
2021/12/23 14:04:30;;;;;;;33.95;21.60;;;;;;;;;;5028338;28;20049;-80
2021/12/23 14:06:57;;;;;;;35.30;21.02;;;;;;;;;;5036728;28;20035;-80
2021/12/23 14:09:30;;;;;;;39.67;21.88;;;;;;;;;;5037153;28;20083;-81
2021/12/23 14:11:57;;;;;;;31.58;20.33;;;;;;;;;;5037276;28;20529;-81
2021/12/23 14:14:23;;;;;;;35.95;20.45;;;;;;;;;;5036003;28;20483;-81
2021/12/23 14:16:49;;;;;;;34.90;20.55;;;;;;;;;;5038078;28;20496;-80
2021/12/23 14:19:38;;;;;;;34.33;20.95;;;;;;;;;;5039593;28;20048;-81
2021/12/23 14:24:51;;;;;;;34.35;20.20;;;;;;;;;;5038598;28;20044;-81
2021/12/23 14:27:17;;;;;;;34.08;19.63;;;;;;;;;;5038038;28;20036;-81
2021/12/23 14:29:45;;;;;;;33.15;22.17;;;;;;;;;;5038294;28;20407;-81
2021/12/23 14:32:14;;;;;;;36.70;21.33;;;;;;;;;;5036711;28;20029;-81
2021/12/23 14:34:40;;;;;;;38.60;21.92;;;;;;;;;;5036531;28;20026;-81
2021/12/23 14:37:08;;;;;;;33.13;19.73;;;;;;;;;;5035288;28;20028;-82
2021/12/23 14:39:38;;;;;;;38.78;19.92;;;;;;;;;;5035649;28;20073;-83
2021/12/23 14:42:10;;;;;;;32.50;20.08;;;;;;;;;;5029021;28;20468;-82
2021/12/23 14:44:37;;;;;;;37.47;22.27;;;;;;;;;;5019899;28;20116;-83
2021/12/23 14:49:55;;;;;;;33.30;20.80;;;;;;;;;;5024653;28;20428;-80
2021/12/23 14:52:23;;;;;;;32.35;21.25;;;;;;;;;;5036710;28;20083;-81
2021/12/23 14:54:51;;;;;;;36.90;22.40;;;;;;;;;;5035781;28;20034;-82
2021/12/23 14:57:19;;;;;;;36.15;22.50;;;;;;;;;;5032408;28;20028;-81
2021/12/23 14:59:51;;;;;;;34.00;21.85;;;;;;;;;;5034892;28;20108;-83
2021/12/23 15:02:19;;;;;;;35.67;23.48;;;;;;;;;;5037388;28;20030;-82
2021/12/23 15:05:04;;;;;;;36.17;23.35;;;;;;;;;;5037002;28;20056;-83
2021/12/23 15:07:49;;;;;;;39.42;24.30;;;;;;;;;;5036650;28;20115;-82
2021/12/23 15:10:26;;;;;;;40.97;25.55;;;;;;;;;;5036869;28;20024;-83
2021/12/23 15:12:52;;;;;;;36.03;23.58;;;;;;;;;;5036804;28;20100;-83
2021/12/23 15:15:18;;;;;;;41.97;25.58;;;;;;;;;;5035359;28;20028;-82
2021/12/23 15:18:00;;;;;;;33.33;21.08;;;;;;;;;;5036557;28;20081;-83
2021/12/23 15:20:30;;;;;;;33.42;21.75;;;;;;;;;;5032700;28;20089;-81
2021/12/23 15:23:00;;;;;;;39.33;23.27;;;;;;;;;;5037904;28;20105;-82
2021/12/23 15:25:37;;;;;;;37.13;21.98;;;;;;;;;;5034876;28;20184;-83
2021/12/23 15:28:07;;;;;;;36.75;23.42;;;;;;;;;;5024204;28;20055;-83
2021/12/23 15:30:34;;;;;;;34.88;23.77;;;;;;;;;;5039982;28;20108;-83
2021/12/23 15:33:00;;;;;;;37.13;23.85;;;;;;;;;;5045157;28;20050;-82
2021/12/23 15:35:30;;;;;;;34.72;22.77;;;;;;;;;;5044811;28;20037;-83
2021/12/23 15:37:58;;;;;;;37.28;23.08;;;;;;;;;;5049253;28;20058;-81
2021/12/23 15:40:26;;;;;;;37.45;23.30;;;;;;;;;;5038478;28;20526;-83